Terminal Aerodrome Forecast
Issued by NWS

Home | Current Version | Previous Version | Text Only | Print | Product List | Glossary On
Versions: 1 2 3 4 5 6 7 8 9 10 11 12 13 14 15
946
FTUS43 KDVN 262340
TAFCID
TAF
KCID 262340Z 2700/2724 32006KT P6SM VCSH SCT050 OVC100
     FM270300 34004KT 6SM BR OVC050
      TEMPO 2703/2707 5SM -SHRA BR BKN035
     FM270800 02006KT 3SM BR BKN025
     FM271500 03008KT P6SM BKN050=

USA.gov is the U.S. government's official web portal to all federal, state and local government web resources and services.